Reistville, Pennsylvania
Current Conditions -  °F | °C
As of 8:42 PM on Wednesday 26 Nov 2014 (Local Time) from KMUI Reporting Station
Broken Clouds Broken Clouds  
Wind Chill: 26°   Ceiling: 7000
Heat Index: 34°   Visibility: 10mi
Dew Point: 30°   Wind: 9mph
Humidity: 87%   Direction: 350°N
Pressure: 29.92"   Gusts: 17mph
Location:  40.3869°N, 76.3173°W
Report Text: KMUI 270142Z AUTO 35008G15KT 310V040 10SM FEW018 SCT050 BKN070 01/M01 A2992 RMK AO2 UPB0133E0142 $
Loading
Personal Weather Stations






























Interactive Weather Map New forecast layout! Learn more

10-Day Weather Forecast

Advertisements
Track Severe Weather on mobile